| time (UTC) | temp F | wind direction | speed MPH | gust MPH | rain 1hr in | rain 24hr in | rain mn in | humidity % | barometer mb |
| 20260505205018 | 71 | 293 | 4.0 | 8.0 | 0.00 | 0.00 | 0.00 | 36 | 1013.8 |
| 20260505204038 | 71 | 293 | 4.0 | 10.0 | 0.00 | 0.00 | 0.00 | 34 | 1013.9 |
| 20260505203019 | 70 | 293 | 5.0 | 12.0 | 0.00 | 0.00 | 0.00 | 37 | 1013.9 |
| 20260505202017 | 70 | 293 | 5.0 | 10.0 | 0.00 | 0.00 | 0.00 | 34 | 1013.7 |
| 20260505201039 | 71 | 293 | 6.0 | 13.0 | 0.00 | 0.00 | 0.00 | 33 | 1014.0 |
| 20260505200019 | 70 | 293 | 5.0 | 11.0 | 0.00 | 0.00 | 0.00 | 34 | 1013.6 |
| 20260505195019 | 70 | 0 | 5.0 | 10.0 | 0.00 | 0.00 | 0.00 | 34 | 1013.9 |
| 20260505194019 | 71 | 293 | 6.0 | 11.0 | 0.00 | 0.00 | 0.00 | 33 | 1014.2 |
| 20260505193019 | 70 | 0 | 4.0 | 9.0 | 0.00 | 0.00 | 0.00 | 35 | 1013.9 |
| 20260505192019 | 70 | 315 | 4.0 | 10.0 | 0.00 | 0.00 | 0.00 | 35 | 1014.2 |
| 20260505191019 | 69 | 293 | 5.0 | 9.0 | 0.00 | 0.00 | 0.00 | 34 | 1013.9 |
| 20260505190019 | 70 | 270 | 5.0 | 9.0 | 0.00 | 0.00 | 0.00 | 33 | 1014.2 |
| 20260505185019 | 69 | 315 | 4.0 | 11.0 | 0.00 | 0.00 | 0.00 | 34 | 1014.2 |
| 20260505184018 | 70 | 270 | 4.0 | 9.0 | 0.00 | 0.00 | 0.00 | 37 | 1014.3 |
| 20260505183019 | 69 | 293 | 4.0 | 9.0 | 0.00 | 0.00 | 0.00 | 35 | 1014.4 |
| 20260505182019 | 69 | 293 | 4.0 | 8.0 | 0.00 | 0.00 | 0.00 | 38 | 1014.5 |
| 20260505181018 | 67 | 315 | 4.0 | 8.0 | 0.00 | 0.00 | 0.00 | 37 | 1014.2 |
| 20260505180019 | 67 | 315 | 3.0 | 9.0 | 0.00 | 0.00 | 0.00 | 39 | 1014.2 |
| 20260505175018 | 66 | 315 | 4.0 | 8.0 | 0.00 | 0.00 | 0.00 | 36 | 1014.2 |
| 20260505174018 | 65 | 315 | 3.0 | 8.0 | 0.00 | 0.00 | 0.00 | 38 | 1014.0 |
| 20260505173019 | 65 | 270 | 4.0 | 8.0 | 0.00 | 0.00 | 0.00 | 41 | 1014.0 |
| 20260505172019 | 65 | 293 | 4.0 | 8.0 | 0.00 | 0.00 | 0.00 | 41 | 1014.2 |
| 20260505171019 | 64 | 293 | 4.0 | 8.0 | 0.00 | 0.00 | 0.00 | 42 | 1014.1 |
| 20260505170039 | 63 | 293 | 3.0 | 7.0 | 0.00 | 0.00 | 0.00 | 42 | 1013.7 |
| 20260505165018 | 63 | 315 | 3.0 | 8.0 | 0.00 | 0.00 | 0.00 | 43 | 1014.1 |
| 20260505164019 | 62 | 315 | 3.0 | 8.0 | 0.00 | 0.00 | 0.00 | 41 | 1013.8 |
| 20260505163020 | 61 | 293 | 3.0 | 8.0 | 0.00 | 0.00 | 0.00 | 45 | 1013.8 |
| 20260505162018 | 60 | 293 | 3.0 | 7.0 | 0.00 | 0.00 | 0.00 | 50 | 1013.9 |
| 20260505161018 | 59 | 315 | 3.0 | 6.0 | 0.00 | 0.00 | 0.00 | 58 | 1013.7 |
| 20260505153039 | 52 | 248 | 1.0 | 4.0 | 0.00 | 0.00 | 0.00 | 76 | 1013.2 |
| 20260505152019 | 50 | 0.0 | 1.0 | 0.00 | 0.00 | 0.00 | 81 | 1012.9 | |
| 20260505151020 | 49 | 0.0 | 2.0 | 0.00 | 0.00 | 0.00 | 84 | 1012.5 | |
| 20260505125018 | 44 | 0.0 | 1.0 | 0.00 | 0.00 | 0.00 | 77 | 1011.6 | |
| 20260505124038 | 45 | 0.0 | 0.0 | 0.00 | 0.00 | 0.00 | 75 | 1011.5 | |
| 20260505123018 | 46 | 203 | 1.0 | 2.0 | 0.00 | 0.00 | 0.00 | 72 | 1011.6 |
| 20260505122018 | 47 | 338 | 1.0 | 3.0 | 0.00 | 0.00 | 0.00 | 71 | 1012.2 |
| 20260505121018 | 48 | 0.0 | 0.0 | 0.00 | 0.00 | 0.00 | 69 | 1012.3 | |
| 20260505120019 | 50 | 0.0 | 0.0 | 0.00 | 0.00 | 0.00 | 67 | 1012.5 | |
| 20260505115019 | 51 | 0.0 | 0.0 | 0.00 | 0.00 | 0.00 | 65 | 1012.2 | |
| 20260505114018 | 53 | 0.0 | 2.0 | 0.00 | 0.00 | 0.00 | 62 | 1012.5 | |
| 20260505113019 | 54 | 0.0 | 2.0 | 0.00 | 0.00 | 0.00 | 61 | 1012.7 | |
| 20260505112018 | 55 | 338 | 1.0 | 3.0 | 0.00 | 0.00 | 0.00 | 60 | 1012.7 |
| 20260505111018 | 55 | 315 | 2.0 | 6.0 | 0.00 | 0.00 | 0.00 | 60 | 1012.9 |
| 20260505102019 | 56 | 293 | 3.0 | 8.0 | 0.00 | 0.00 | 0.00 | 53 | 1013.1 |
| 20260505101019 | 56 | 293 | 4.0 | 6.0 | 0.00 | 0.00 | 0.00 | 54 | 1013.5 |
| 20260505100018 | 56 | 293 | 2.0 | 4.0 | 0.00 | 0.00 | 0.00 | 53 | 1013.5 |
| 20260505095039 | 56 | 293 | 2.0 | 7.0 | 0.00 | 0.00 | 0.00 | 51 | 1013.2 |
| 20260505094018 | 57 | 315 | 2.0 | 5.0 | 0.00 | 0.00 | 0.00 | 48 | 1013.2 |
| 20260505093018 | 57 | 293 | 4.0 | 11.0 | 0.00 | 0.00 | 0.00 | 49 | 1013.5 |
| 20260505092018 | 56 | 293 | 3.0 | 9.0 | 0.00 | 0.00 | 0.00 | 51 | 1013.3 |
| 20260505091018 | 56 | 315 | 3.0 | 6.0 | 0.00 | 0.00 | 0.00 | 53 | 1013.1 |
| 20260505090038 | 57 | 293 | 3.0 | 6.0 | 0.00 | 0.00 | 0.00 | 55 | 1013.2 |
| 20260505085018 | 57 | 293 | 3.0 | 8.0 | 0.00 | 0.00 | 0.00 | 56 | 1013.6 |
| 20260505084018 | 57 | 315 | 3.0 | 8.0 | 0.00 | 0.00 | 0.00 | 57 | 1013.3 |
| 20260505083038 | 56 | 293 | 4.0 | 7.0 | 0.00 | 0.00 | 0.00 | 59 | 1013.4 |
| 20260505082018 | 56 | 293 | 3.0 | 5.0 | 0.00 | 0.00 | 0.00 | 60 | 1013.1 |
| 20260505081038 | 55 | 270 | 3.0 | 4.0 | 0.00 | 0.00 | 0.00 | 62 | 1013.0 |
| 20260505080018 | 55 | 270 | 2.0 | 5.0 | 0.00 | 0.00 | 0.00 | 62 | 1013.0 |
| 20260505075018 | 56 | 270 | 1.0 | 4.0 | 0.00 | 0.00 | 0.00 | 61 | 1012.9 |
| 20260505074018 | 57 | 270 | 1.0 | 4.0 | 0.00 | 0.00 | 0.00 | 60 | 1012.9 |
| 20260505073018 | 57 | 293 | 2.0 | 5.0 | 0.00 | 0.00 | 0.00 | 59 | 1013.1 |
| 20260505072018 | 57 | 293 | 3.0 | 6.0 | 0.00 | 0.00 | 0.00 | 59 | 1012.9 |
| 20260505071019 | 58 | 270 | 3.0 | 6.0 | 0.00 | 0.00 | 0.00 | 61 | 1013.3 |
| 20260505070018 | 58 | 270 | 3.0 | 7.0 | 0.00 | 0.00 | 0.00 | 63 | 1013.2 |
| 20260505065018 | 58 | 315 | 2.0 | 5.0 | 0.00 | 0.00 | 0.00 | 62 | 1012.9 |
| 20260505064038 | 59 | 315 | 3.0 | 6.0 | 0.00 | 0.00 | 0.00 | 63 | 1012.8 |
| 20260505063038 | 59 | 315 | 4.0 | 7.0 | 0.00 | 0.00 | 0.00 | 62 | 1012.6 |
| 20260505062019 | 59 | 293 | 3.0 | 9.0 | 0.00 | 0.00 | 0.00 | 63 | 1012.5 |
| 20260505061018 | 59 | 338 | 3.0 | 8.0 | 0.00 | 0.00 | 0.00 | 63 | 1012.3 |
| 20260505060018 | 60 | 315 | 5.0 | 9.0 | 0.00 | 0.00 | 0.00 | 62 | 1012.5 |
| 20260505055018 | 60 | 293 | 4.0 | 10.0 | 0.00 | 0.00 | 0.00 | 62 | 1012.3 |
| 20260505054039 | 60 | 315 | 4.0 | 10.0 | 0.00 | 0.00 | 0.00 | 62 | 1012.2 |
| 20260505053038 | 61 | 315 | 5.0 | 11.0 | 0.00 | 0.00 | 0.00 | 62 | 1012.1 |
| 20260505052018 | 61 | 293 | 4.0 | 9.0 | 0.00 | 0.00 | 0.00 | 61 | 1011.9 |
| 20260505051018 | 60 | 315 | 4.0 | 8.0 | 0.00 | 0.00 | 0.00 | 61 | 1011.8 |
| 20260505041018 | 62 | 315 | 2.0 | 6.0 | 0.00 | 0.00 | 0.00 | 61 | 1009.8 |
| 20260505040038 | 62 | 315 | 2.0 | 5.0 | 0.00 | 0.00 | 0.00 | 60 | 1009.7 |
| 20260505035018 | 63 | 338 | 2.0 | 6.0 | 0.00 | 0.00 | 0.00 | 59 | 1009.2 |
| 20260505034018 | 63 | 0 | 4.0 | 11.0 | 0.00 | 0.00 | 0.00 | 58 | 1009.0 |
| 20260505033018 | 63 | 0 | 4.0 | 8.0 | 0.00 | 0.00 | 0.00 | 58 | 1008.9 |
| 20260505032019 | 64 | 0 | 4.0 | 9.0 | 0.00 | 0.00 | 0.00 | 57 | 1008.2 |
| 20260505031018 | 64 | 315 | 4.0 | 9.0 | 0.00 | 0.00 | 0.00 | 56 | 1008.1 |
| 20260505030018 | 65 | 338 | 5.0 | 12.0 | 0.00 | 0.00 | 0.00 | 55 | 1008.2 |
| 20260505025018 | 65 | 0 | 2.0 | 7.0 | 0.00 | 0.00 | 0.00 | 55 | 1007.2 |
| 20260505024018 | 66 | 315 | 4.0 | 9.0 | 0.00 | 0.00 | 0.00 | 55 | 1007.5 |
| 20260505023018 | 66 | 293 | 5.0 | 11.0 | 0.00 | 0.00 | 0.00 | 54 | 1007.2 |
| 20260505022018 | 67 | 315 | 7.0 | 16.0 | 0.00 | 0.00 | 0.00 | 54 | 1007.2 |
| 20260505021018 | 67 | 315 | 7.0 | 14.0 | 0.00 | 0.00 | 0.00 | 53 | 1007.2 |
| 20260505020038 | 67 | 293 | 6.0 | 13.0 | 0.00 | 0.00 | 0.00 | 54 | 1007.3 |
| 20260505015018 | 67 | 293 | 5.0 | 15.0 | 0.00 | 0.00 | 0.00 | 55 | 1007.1 |
| 20260505014038 | 65 | 293 | 4.0 | 7.0 | 0.00 | 0.00 | 0.00 | 54 | 1006.9 |
| 20260505013018 | 66 | 293 | 7.0 | 12.0 | 0.00 | 0.00 | 0.00 | 55 | 1007.2 |
| 20260505012038 | 66 | 315 | 6.0 | 15.0 | 0.00 | 0.00 | 0.00 | 54 | 1007.3 |
| 20260505011059 | 66 | 315 | 5.0 | 10.0 | 0.00 | 0.00 | 0.00 | 52 | 1007.3 |
| 20260505010018 | 67 | 315 | 7.0 | 16.0 | 0.00 | 0.00 | 0.00 | 50 | 1007.7 |
| 20260505005038 | 68 | 293 | 6.0 | 13.0 | 0.00 | 0.00 | 0.00 | 43 | 1007.9 |
| 20260505004018 | 68 | 315 | 8.0 | 18.0 | 0.00 | 0.00 | 0.00 | 45 | 1007.9 |
| 20260505003020 | 69 | 315 | 8.0 | 17.0 | 0.00 | 0.00 | 0.00 | 43 | 1008.0 |
| 20260505002018 | 70 | 315 | 7.0 | 14.0 | 0.00 | 0.00 | 0.00 | 43 | 1008.2 |
| 20260505001019 | 73 | 315 | 8.0 | 14.0 | 0.00 | 0.00 | 0.00 | 40 | 1008.5 |
| 20260505000018 | 74 | 315 | 6.0 | 12.0 | 0.00 | 0.00 | 0.00 | 35 | 1008.4 |
| 20260504235018 | 73 | 293 | 6.0 | 13.0 | 0.00 | 0.00 | 0.00 | 35 | 1008.2 |
| 20260504234018 | 72 | 315 | 9.0 | 18.0 | 0.00 | 0.00 | 0.00 | 39 | 1008.7 |
| 20260504233018 | 72 | 315 | 7.0 | 18.0 | 0.00 | 0.00 | 0.00 | 40 | 1008.8 |
| 20260504232018 | 73 | 315 | 7.0 | 13.0 | 0.00 | 0.00 | 0.00 | 36 | 1009.0 |
| 20260504231038 | 72 | 315 | 6.0 | 12.0 | 0.00 | 0.00 | 0.00 | 36 | 1009.1 |
| 20260504230019 | 72 | 315 | 7.0 | 19.0 | 0.00 | 0.00 | 0.00 | 36 | 1009.0 |
| 20260504225018 | 73 | 338 | 8.0 | 19.0 | 0.00 | 0.00 | 0.00 | 33 | 1009.3 |
| 20260504224038 | 75 | 315 | 7.0 | 17.0 | 0.00 | 0.00 | 0.00 | 33 | 1009.7 |
| 20260504223018 | 73 | 293 | 8.0 | 15.0 | 0.00 | 0.00 | 0.00 | 33 | 1009.4 |
| 20260504222018 | 75 | 293 | 6.0 | 16.0 | 0.00 | 0.00 | 0.00 | 32 | 1010.1 |
| 20260504221018 | 74 | 315 | 8.0 | 21.0 | 0.00 | 0.00 | 0.00 | 35 | 1010.1 |
| 20260504220018 | 75 | 315 | 8.0 | 27.0 | 0.00 | 0.00 | 0.00 | 33 | 1010.4 |
| 20260504215018 | 76 | 23 | 4.0 | 10.0 | 0.00 | 0.00 | 0.00 | 26 | 1010.8 |
| 20260504214018 | 76 | 45 | 3.0 | 10.0 | 0.00 | 0.00 | 0.00 | 25 | 1010.7 |
| 20260504213018 | 76 | 45 | 4.0 | 10.0 | 0.00 | 0.00 | 0.00 | 27 | 1010.8 |
| 20260504212018 | 74 | 45 | 3.0 | 9.0 | 0.00 | 0.00 | 0.00 | 27 | 1010.9 |
| 20260504211018 | 74 | 23 | 2.0 | 5.0 | 0.00 | 0.00 | 0.00 | 27 | 1011.0 |
| 20260504210039 | 74 | 0 | 4.0 | 14.0 | 0.00 | 0.00 | 0.00 | 26 | 1011.0 |